Strona główna
METAR-TAF:

METAR-TAF

Lotnisko :

Port lotniczy Albacete

Albacete, Hiszpania

Szerokość geograficzna: 38-57N, Długość geograficzna: 001-51W, wysokość: 702 m

Aktualna obserwacja pogody

Raport powstał 28 minut temu, godzina 17:00 UTC
Wiatr 9 kt od południe, zmienny między południowo-południowy wschód i południowy zachód
Temperatura 31°C
Wilgotność 36%
Ciśnienie 1010 hPa
Widzialność 10 km lub więcej
Brak chmur poniżej 1500 m i brak chmur cumulonimbus

METAR: LEAB 251700Z 19009KT 150V230 CAVOK 31/14 Q1010 NOSIG

czas: 19:28 (17:28 UTC)

Prognoza

Raport powstał 6 godziny i 28 minut temu, godzina 11:00 UTC
Prognoza ważna od 25 godzina 12 UTC do 26 godzina 12 UTC
Wiatr 10 kt od południowo-południowy wschód
Widzialność 10 km lub więcej
Brak chmur poniżej 1500 m i brak chmur cumulonimbus
Prawdopodobieństwo 40% :
Przejściowo
od 25 godzina 16 UTC do 25 godzina 23 UTC
Wiatr 15 kt od południowo-południowy wschód w porywach dochodzący do 25 kt

TAF: LEAB 251100Z 2512/2612 16010KT CAVOK TX34/2515Z TN17/2606Z PROB40 TEMPO 2516/2523 16015G25KT

Obserwacja i prognoza pogody dla ponad 4000 lotnisk (raport METAR i TAF).

Dostępne stacje oznaczono żółtymi i czerwonymi punktami na mapie.

Najedź kursorem aby zobaczyć nazwę stacji.

Kliknij aby zobaczyć obserwacje i prognozy pogody.

Aby zmienić mapę: kliknij na zielony przycisk z czarnym krzyżykiem, aby powiększyć; na zielony przycisk z myślnikiem, aby pomniejszyć; na zielone strzałki, aby przejść do map sąsiednich.


METAR-TAF: